sensor_id;sensor_type;location;lat;lon;timestamp;P1;durP1;ratioP1;P2;durP2;ratioP2
38851;SDS011;24605;50.092;9.182;2023-12-20T00:01:07;10.75;;;5.70;;
38851;SDS011;24605;50.092;9.182;2023-12-20T00:03:35;9.77;;;5.43;;
38851;SDS011;24605;50.092;9.182;2023-12-20T00:06:01;10.13;;;5.88;;
38851;SDS011;24605;50.092;9.182;2023-12-20T00:08:28;10.30;;;6.22;;
38851;SDS011;24605;50.092;9.182;2023-12-20T00:10:54;9.60;;;5.53;;
38851;SDS011;24605;50.092;9.182;2023-12-20T00:13:21;8.80;;;5.53;;
38851;SDS011;24605;50.092;9.182;2023-12-20T00:15:47;11.98;;;6.65;;
38851;SDS011;24605;50.092;9.182;2023-12-20T00:18:14;10.73;;;6.00;;
38851;SDS011;24605;50.092;9.182;2023-12-20T00:20:42;9.60;;;5.80;;
38851;SDS011;24605;50.092;9.182;2023-12-20T00:23:08;8.35;;;5.00;;
38851;SDS011;24605;50.092;9.182;2023-12-20T00:25:34;8.60;;;5.28;;
38851;SDS011;24605;50.092;9.182;2023-12-20T00:28:00;9.30;;;5.65;;
38851;SDS011;24605;50.092;9.182;2023-12-20T00:30:27;11.50;;;6.15;;
38851;SDS011;24605;50.092;9.182;2023-12-20T00:32:53;10.77;;;5.63;;
38851;SDS011;24605;50.092;9.182;2023-12-20T00:35:20;10.90;;;6.40;;
38851;SDS011;24605;50.092;9.182;2023-12-20T00:37:48;9.93;;;5.85;;
38851;SDS011;24605;50.092;9.182;2023-12-20T00:40:14;11.68;;;6.20;;
38851;SDS011;24605;50.092;9.182;2023-12-20T00:42:40;11.75;;;6.72;;
38851;SDS011;24605;50.092;9.182;2023-12-20T00:45:07;12.73;;;6.50;;
38851;SDS011;24605;50.092;9.182;2023-12-20T00:47:34;11.43;;;7.10;;
38851;SDS011;24605;50.092;9.182;2023-12-20T00:50:01;11.10;;;6.75;;
38851;SDS011;24605;50.092;9.182;2023-12-20T00:52:28;13.68;;;7.45;;
38851;SDS011;24605;50.092;9.182;2023-12-20T00:54:56;12.13;;;6.85;;
38851;SDS011;24605;50.092;9.182;2023-12-20T00:57:22;11.88;;;6.82;;
38851;SDS011;24605;50.092;9.182;2023-12-20T00:59:49;12.07;;;7.53;;
38851;SDS011;24605;50.092;9.182;2023-12-20T01:02:15;16.00;;;6.68;;
38851;SDS011;24605;50.092;9.182;2023-12-20T01:04:41;11.27;;;6.68;;
38851;SDS011;24605;50.092;9.182;2023-12-20T01:07:08;12.23;;;6.70;;
38851;SDS011;24605;50.092;9.182;2023-12-20T01:09:34;10.15;;;5.90;;
38851;SDS011;24605;50.092;9.182;2023-12-20T01:12:02;10.43;;;5.85;;
38851;SDS011;24605;50.092;9.182;2023-12-20T01:14:29;12.57;;;6.85;;
38851;SDS011;24605;50.092;9.182;2023-12-20T01:16:55;11.38;;;6.32;;
38851;SDS011;24605;50.092;9.182;2023-12-20T01:19:22;10.00;;;6.15;;
38851;SDS011;24605;50.092;9.182;2023-12-20T01:21:49;11.55;;;6.13;;
38851;SDS011;24605;50.092;9.182;2023-12-20T01:24:15;12.05;;;6.30;;
38851;SDS011;24605;50.092;9.182;2023-12-20T01:26:41;15.13;;;7.32;;
38851;SDS011;24605;50.092;9.182;2023-12-20T01:29:09;9.73;;;6.07;;
38851;SDS011;24605;50.092;9.182;2023-12-20T01:31:36;10.15;;;6.05;;
38851;SDS011;24605;50.092;9.182;2023-12-20T01:34:02;10.95;;;6.53;;
38851;SDS011;24605;50.092;9.182;2023-12-20T01:36:29;10.88;;;6.50;;
38851;SDS011;24605;50.092;9.182;2023-12-20T01:38:55;9.90;;;5.82;;
38851;SDS011;24605;50.092;9.182;2023-12-20T01:41:21;10.13;;;5.80;;
38851;SDS011;24605;50.092;9.182;2023-12-20T01:43:48;8.63;;;5.50;;
38851;SDS011;24605;50.092;9.182;2023-12-20T01:46:16;9.10;;;5.38;;
38851;SDS011;24605;50.092;9.182;2023-12-20T01:48:43;9.48;;;5.68;;
38851;SDS011;24605;50.092;9.182;2023-12-20T01:51:09;11.07;;;6.30;;
38851;SDS011;24605;50.092;9.182;2023-12-20T01:53:36;12.60;;;6.20;;
38851;SDS011;24605;50.092;9.182;2023-12-20T01:56:05;11.63;;;5.97;;
38851;SDS011;24605;50.092;9.182;2023-12-20T01:58:33;10.38;;;5.82;;
38851;SDS011;24605;50.092;9.182;2023-12-20T02:00:59;11.10;;;6.03;;
38851;SDS011;24605;50.092;9.182;2023-12-20T02:03:27;8.95;;;5.65;;
38851;SDS011;24605;50.092;9.182;2023-12-20T02:05:54;9.98;;;5.80;;
38851;SDS011;24605;50.092;9.182;2023-12-20T02:08:20;9.48;;;5.70;;
38851;SDS011;24605;50.092;9.182;2023-12-20T02:10:47;9.18;;;5.28;;
38851;SDS011;24605;50.092;9.182;2023-12-20T02:13:13;11.77;;;5.25;;
38851;SDS011;24605;50.092;9.182;2023-12-20T02:15:40;9.50;;;5.50;;
38851;SDS011;24605;50.092;9.182;2023-12-20T02:18:08;11.80;;;5.72;;
38851;SDS011;24605;50.092;9.182;2023-12-20T02:20:36;10.32;;;5.30;;
38851;SDS011;24605;50.092;9.182;2023-12-20T02:23:04;7.55;;;4.55;;
38851;SDS011;24605;50.092;9.182;2023-12-20T02:25:30;9.73;;;4.90;;
38851;SDS011;24605;50.092;9.182;2023-12-20T02:27:57;9.30;;;5.78;;
38851;SDS011;24605;50.092;9.182;2023-12-20T02:30:23;9.85;;;5.63;;
38851;SDS011;24605;50.092;9.182;2023-12-20T02:32:50;9.02;;;5.20;;
38851;SDS011;24605;50.092;9.182;2023-12-20T02:35:18;10.65;;;4.80;;
38851;SDS011;24605;50.092;9.182;2023-12-20T02:37:45;11.35;;;5.53;;
38851;SDS011;24605;50.092;9.182;2023-12-20T02:40:12;13.75;;;6.72;;
38851;SDS011;24605;50.092;9.182;2023-12-20T02:42:39;10.02;;;6.20;;
38851;SDS011;24605;50.092;9.182;2023-12-20T02:45:06;10.60;;;5.72;;
38851;SDS011;24605;50.092;9.182;2023-12-20T02:47:33;9.73;;;5.25;;
38851;SDS011;24605;50.092;9.182;2023-12-20T02:49:59;8.13;;;4.75;;
38851;SDS011;24605;50.092;9.182;2023-12-20T02:52:27;8.85;;;5.20;;
38851;SDS011;24605;50.092;9.182;2023-12-20T02:54:54;7.78;;;4.78;;
38851;SDS011;24605;50.092;9.182;2023-12-20T02:57:22;10.02;;;5.43;;
38851;SDS011;24605;50.092;9.182;2023-12-20T02:59:49;8.68;;;5.25;;
38851;SDS011;24605;50.092;9.182;2023-12-20T03:02:15;8.38;;;4.82;;
38851;SDS011;24605;50.092;9.182;2023-12-20T03:04:41;12.68;;;6.15;;
38851;SDS011;24605;50.092;9.182;2023-12-20T03:07:08;8.82;;;5.53;;
38851;SDS011;24605;50.092;9.182;2023-12-20T03:09:35;11.23;;;5.80;;
38851;SDS011;24605;50.092;9.182;2023-12-20T03:12:01;10.45;;;5.75;;
38851;SDS011;24605;50.092;9.182;2023-12-20T03:14:29;10.40;;;5.45;;
38851;SDS011;24605;50.092;9.182;2023-12-20T03:16:55;9.70;;;5.72;;
38851;SDS011;24605;50.092;9.182;2023-12-20T03:19:22;10.07;;;5.97;;
38851;SDS011;24605;50.092;9.182;2023-12-20T03:21:48;8.90;;;5.70;;
38851;SDS011;24605;50.092;9.182;2023-12-20T03:24:15;9.63;;;5.85;;
38851;SDS011;24605;50.092;9.182;2023-12-20T03:26:41;10.65;;;6.15;;
38851;SDS011;24605;50.092;9.182;2023-12-20T03:29:07;10.93;;;6.45;;
38851;SDS011;24605;50.092;9.182;2023-12-20T03:31:35;9.40;;;5.95;;
38851;SDS011;24605;50.092;9.182;2023-12-20T03:34:02;11.27;;;6.75;;
38851;SDS011;24605;50.092;9.182;2023-12-20T03:36:28;11.73;;;6.57;;
38851;SDS011;24605;50.092;9.182;2023-12-20T03:38:54;11.27;;;7.25;;
38851;SDS011;24605;50.092;9.182;2023-12-20T03:41:21;11.52;;;7.10;;
38851;SDS011;24605;50.092;9.182;2023-12-20T03:43:47;12.63;;;7.03;;
38851;SDS011;24605;50.092;9.182;2023-12-20T03:46:14;13.98;;;7.15;;
38851;SDS011;24605;50.092;9.182;2023-12-20T03:48:41;12.27;;;7.03;;
38851;SDS011;24605;50.092;9.182;2023-12-20T03:51:08;11.70;;;6.72;;
38851;SDS011;24605;50.092;9.182;2023-12-20T03:53:34;12.68;;;7.38;;
38851;SDS011;24605;50.092;9.182;2023-12-20T03:56:01;12.75;;;7.13;;
38851;SDS011;24605;50.092;9.182;2023-12-20T03:58:27;12.05;;;7.10;;
38851;SDS011;24605;50.092;9.182;2023-12-20T04:00:53;13.85;;;7.72;;
38851;SDS011;24605;50.092;9.182;2023-12-20T04:03:20;12.98;;;7.70;;
38851;SDS011;24605;50.092;9.182;2023-12-20T04:05:48;14.30;;;8.65;;
38851;SDS011;24605;50.092;9.182;2023-12-20T04:08:14;13.25;;;7.65;;
38851;SDS011;24605;50.092;9.182;2023-12-20T04:10:41;12.93;;;8.10;;
38851;SDS011;24605;50.092;9.182;2023-12-20T04:13:07;14.90;;;7.90;;
38851;SDS011;24605;50.092;9.182;2023-12-20T04:15:33;13.95;;;8.45;;
38851;SDS011;24605;50.092;9.182;2023-12-20T04:18:00;16.15;;;9.23;;
38851;SDS011;24605;50.092;9.182;2023-12-20T04:20:26;17.42;;;9.10;;
38851;SDS011;24605;50.092;9.182;2023-12-20T04:22:54;16.20;;;8.77;;
38851;SDS011;24605;50.092;9.182;2023-12-20T04:25:21;17.58;;;9.32;;
38851;SDS011;24605;50.092;9.182;2023-12-20T04:27:47;15.00;;;8.95;;
38851;SDS011;24605;50.092;9.182;2023-12-20T04:30:13;21.50;;;10.35;;
38851;SDS011;24605;50.092;9.182;2023-12-20T04:32:40;21.88;;;10.32;;
38851;SDS011;24605;50.092;9.182;2023-12-20T04:35:06;17.80;;;9.60;;
38851;SDS011;24605;50.092;9.182;2023-12-20T04:37:34;24.05;;;10.30;;
38851;SDS011;24605;50.092;9.182;2023-12-20T04:40:02;18.50;;;10.05;;
38851;SDS011;24605;50.092;9.182;2023-12-20T04:42:30;20.63;;;10.43;;
38851;SDS011;24605;50.092;9.182;2023-12-20T04:44:56;17.80;;;9.82;;
38851;SDS011;24605;50.092;9.182;2023-12-20T04:47:23;24.95;;;10.25;;
38851;SDS011;24605;50.092;9.182;2023-12-20T04:49:49;135.98;;;16.73;;
38851;SDS011;24605;50.092;9.182;2023-12-20T04:52:16;26.23;;;10.90;;
38851;SDS011;24605;50.092;9.182;2023-12-20T04:54:42;29.05;;;11.77;;
38851;SDS011;24605;50.092;9.182;2023-12-20T04:57:10;47.70;;;11.90;;
38851;SDS011;24605;50.092;9.182;2023-12-20T04:59:36;22.30;;;11.10;;
38851;SDS011;24605;50.092;9.182;2023-12-20T05:02:03;50.00;;;14.10;;
38851;SDS011;24605;50.092;9.182;2023-12-20T05:04:29;23.95;;;11.57;;
38851;SDS011;24605;50.092;9.182;2023-12-20T05:06:56;38.40;;;11.95;;
38851;SDS011;24605;50.092;9.182;2023-12-20T05:09:22;27.98;;;10.38;;
38851;SDS011;24605;50.092;9.182;2023-12-20T05:11:49;21.02;;;10.75;;
38851;SDS011;24605;50.092;9.182;2023-12-20T05:14:17;17.70;;;10.35;;
38851;SDS011;24605;50.092;9.182;2023-12-20T05:16:43;23.00;;;10.85;;
38851;SDS011;24605;50.092;9.182;2023-12-20T05:19:09;20.10;;;11.15;;
38851;SDS011;24605;50.092;9.182;2023-12-20T05:21:36;18.83;;;9.98;;
38851;SDS011;24605;50.092;9.182;2023-12-20T05:24:02;21.92;;;10.50;;
38851;SDS011;24605;50.092;9.182;2023-12-20T05:26:29;20.50;;;10.85;;
38851;SDS011;24605;50.092;9.182;2023-12-20T05:28:56;21.15;;;10.30;;
38851;SDS011;24605;50.092;9.182;2023-12-20T05:31:23;18.42;;;9.85;;
38851;SDS011;24605;50.092;9.182;2023-12-20T05:33:50;19.48;;;10.38;;
38851;SDS011;24605;50.092;9.182;2023-12-20T05:36:16;19.35;;;10.45;;
38851;SDS011;24605;50.092;9.182;2023-12-20T05:38:43;21.92;;;10.55;;
38851;SDS011;24605;50.092;9.182;2023-12-20T05:41:09;17.30;;;10.40;;
38851;SDS011;24605;50.092;9.182;2023-12-20T05:43:36;22.88;;;11.45;;
38851;SDS011;24605;50.092;9.182;2023-12-20T05:46:03;24.70;;;12.50;;
38851;SDS011;24605;50.092;9.182;2023-12-20T05:48:31;22.45;;;12.50;;
38851;SDS011;24605;50.092;9.182;2023-12-20T05:50:57;22.73;;;11.70;;
38851;SDS011;24605;50.092;9.182;2023-12-20T05:53:23;24.55;;;12.15;;
38851;SDS011;24605;50.092;9.182;2023-12-20T05:55:50;53.72;;;15.05;;
38851;SDS011;24605;50.092;9.182;2023-12-20T05:58:16;41.60;;;15.57;;
38851;SDS011;24605;50.092;9.182;2023-12-20T06:00:43;30.02;;;14.38;;
38851;SDS011;24605;50.092;9.182;2023-12-20T06:03:09;27.40;;;14.27;;
38851;SDS011;24605;50.092;9.182;2023-12-20T06:05:37;30.38;;;14.35;;
38851;SDS011;24605;50.092;9.182;2023-12-20T06:08:04;30.75;;;15.25;;
38851;SDS011;24605;50.092;9.182;2023-12-20T06:10:31;23.55;;;12.35;;
38851;SDS011;24605;50.092;9.182;2023-12-20T06:12:57;24.60;;;12.88;;
38851;SDS011;24605;50.092;9.182;2023-12-20T06:15:24;20.60;;;11.95;;
38851;SDS011;24605;50.092;9.182;2023-12-20T06:17:50;27.50;;;12.73;;
38851;SDS011;24605;50.092;9.182;2023-12-20T06:20:17;22.52;;;12.25;;
38851;SDS011;24605;50.092;9.182;2023-12-20T06:22:47;20.20;;;10.07;;
38851;SDS011;24605;50.092;9.182;2023-12-20T06:25:14;20.27;;;10.70;;
38851;SDS011;24605;50.092;9.182;2023-12-20T06:27:40;22.15;;;11.82;;
38851;SDS011;24605;50.092;9.182;2023-12-20T06:30:07;20.85;;;10.23;;
38851;SDS011;24605;50.092;9.182;2023-12-20T06:32:34;18.42;;;9.75;;
38851;SDS011;24605;50.092;9.182;2023-12-20T06:35:03;18.67;;;8.48;;
38851;SDS011;24605;50.092;9.182;2023-12-20T06:37:30;19.73;;;9.10;;
38851;SDS011;24605;50.092;9.182;2023-12-20T06:39:58;22.77;;;9.52;;
38851;SDS011;24605;50.092;9.182;2023-12-20T06:42:24;18.48;;;9.77;;
38851;SDS011;24605;50.092;9.182;2023-12-20T06:44:50;23.02;;;9.15;;
38851;SDS011;24605;50.092;9.182;2023-12-20T06:47:17;17.23;;;8.35;;
38851;SDS011;24605;50.092;9.182;2023-12-20T06:49:43;21.23;;;9.57;;
38851;SDS011;24605;50.092;9.182;2023-12-20T06:52:10;19.13;;;7.88;;
38851;SDS011;24605;50.092;9.182;2023-12-20T06:54:36;17.52;;;8.85;;
38851;SDS011;24605;50.092;9.182;2023-12-20T06:57:04;15.70;;;7.97;;
38851;SDS011;24605;50.092;9.182;2023-12-20T06:59:31;17.50;;;7.50;;
38851;SDS011;24605;50.092;9.182;2023-12-20T07:01:57;16.58;;;7.18;;
38851;SDS011;24605;50.092;9.182;2023-12-20T07:04:24;12.45;;;6.43;;
38851;SDS011;24605;50.092;9.182;2023-12-20T07:06:50;14.20;;;6.55;;
38851;SDS011;24605;50.092;9.182;2023-12-20T07:09:18;16.65;;;7.00;;
38851;SDS011;24605;50.092;9.182;2023-12-20T07:11:45;13.23;;;5.70;;
38851;SDS011;24605;50.092;9.182;2023-12-20T07:14:13;19.55;;;5.50;;
38851;SDS011;24605;50.092;9.182;2023-12-20T07:16:39;14.52;;;5.35;;
38851;SDS011;24605;50.092;9.182;2023-12-20T07:19:06;11.65;;;5.20;;
38851;SDS011;24605;50.092;9.182;2023-12-20T07:21:33;14.25;;;4.75;;
38851;SDS011;24605;50.092;9.182;2023-12-20T07:23:59;14.88;;;5.10;;
38851;SDS011;24605;50.092;9.182;2023-12-20T07:26:26;13.93;;;5.53;;
38851;SDS011;24605;50.092;9.182;2023-12-20T07:28:52;13.90;;;4.30;;
38851;SDS011;24605;50.092;9.182;2023-12-20T07:31:20;13.13;;;4.70;;
38851;SDS011;24605;50.092;9.182;2023-12-20T07:33:47;16.25;;;6.13;;
38851;SDS011;24605;50.092;9.182;2023-12-20T07:36:13;13.35;;;4.47;;
38851;SDS011;24605;50.092;9.182;2023-12-20T07:38:40;13.77;;;4.07;;
38851;SDS011;24605;50.092;9.182;2023-12-20T07:41:08;10.32;;;4.22;;
38851;SDS011;24605;50.092;9.182;2023-12-20T07:43:35;13.88;;;4.07;;
38851;SDS011;24605;50.092;9.182;2023-12-20T07:46:04;8.90;;;2.90;;
38851;SDS011;24605;50.092;9.182;2023-12-20T07:48:33;13.10;;;5.07;;
38851;SDS011;24605;50.092;9.182;2023-12-20T07:51:00;10.50;;;3.17;;
38851;SDS011;24605;50.092;9.182;2023-12-20T07:53:26;9.25;;;2.70;;
38851;SDS011;24605;50.092;9.182;2023-12-20T07:55:53;16.77;;;3.08;;
38851;SDS011;24605;50.092;9.182;2023-12-20T07:58:19;8.23;;;2.33;;
38851;SDS011;24605;50.092;9.182;2023-12-20T08:00:46;9.43;;;2.75;;
38851;SDS011;24605;50.092;9.182;2023-12-20T08:03:12;5.95;;;3.00;;
38851;SDS011;24605;50.092;9.182;2023-12-20T08:05:40;8.77;;;3.40;;
38851;SDS011;24605;50.092;9.182;2023-12-20T08:08:07;7.93;;;2.47;;
38851;SDS011;24605;50.092;9.182;2023-12-20T08:10:33;6.03;;;2.00;;
38851;SDS011;24605;50.092;9.182;2023-12-20T08:13:00;9.65;;;2.60;;
38851;SDS011;24605;50.092;9.182;2023-12-20T08:15:26;8.77;;;2.53;;
38851;SDS011;24605;50.092;9.182;2023-12-20T08:17:53;9.00;;;2.60;;
38851;SDS011;24605;50.092;9.182;2023-12-20T08:20:19;13.00;;;3.03;;
38851;SDS011;24605;50.092;9.182;2023-12-20T08:22:47;7.93;;;2.90;;
38851;SDS011;24605;50.092;9.182;2023-12-20T08:25:13;13.32;;;2.53;;
38851;SDS011;24605;50.092;9.182;2023-12-20T08:27:40;8.82;;;2.65;;
38851;SDS011;24605;50.092;9.182;2023-12-20T08:30:08;9.18;;;2.65;;
38851;SDS011;24605;50.092;9.182;2023-12-20T08:32:35;13.80;;;2.67;;
38851;SDS011;24605;50.092;9.182;2023-12-20T08:35:02;20.05;;;3.53;;
38851;SDS011;24605;50.092;9.182;2023-12-20T08:37:28;7.55;;;2.30;;
38851;SDS011;24605;50.092;9.182;2023-12-20T08:39:57;9.60;;;2.63;;
38851;SDS011;24605;50.092;9.182;2023-12-20T08:42:23;15.48;;;2.63;;
38851;SDS011;24605;50.092;9.182;2023-12-20T08:44:55;6.95;;;2.17;;
38851;SDS011;24605;50.092;9.182;2023-12-20T08:47:22;7.13;;;2.05;;
38851;SDS011;24605;50.092;9.182;2023-12-20T08:49:48;9.68;;;2.63;;
38851;SDS011;24605;50.092;9.182;2023-12-20T08:52:15;9.52;;;2.20;;
38851;SDS011;24605;50.092;9.182;2023-12-20T08:54:41;10.13;;;2.80;;
38851;SDS011;24605;50.092;9.182;2023-12-20T08:57:09;7.60;;;2.20;;
38851;SDS011;24605;50.092;9.182;2023-12-20T08:59:36;8.10;;;2.50;;
38851;SDS011;24605;50.092;9.182;2023-12-20T09:02:02;8.48;;;2.33;;
38851;SDS011;24605;50.092;9.182;2023-12-20T09:04:29;6.65;;;2.30;;
38851;SDS011;24605;50.092;9.182;2023-12-20T09:06:55;10.02;;;2.25;;
38851;SDS011;24605;50.092;9.182;2023-12-20T09:09:22;5.90;;;2.53;;
38851;SDS011;24605;50.092;9.182;2023-12-20T09:11:48;7.97;;;2.42;;
38851;SDS011;24605;50.092;9.182;2023-12-20T09:14:17;10.55;;;2.63;;
38851;SDS011;24605;50.092;9.182;2023-12-20T09:16:44;7.57;;;2.63;;
38851;SDS011;24605;50.092;9.182;2023-12-20T09:19:10;9.95;;;3.00;;
38851;SDS011;24605;50.092;9.182;2023-12-20T09:21:37;7.85;;;2.50;;
38851;SDS011;24605;50.092;9.182;2023-12-20T09:24:03;15.73;;;3.05;;
38851;SDS011;24605;50.092;9.182;2023-12-20T09:26:30;9.50;;;3.15;;
38851;SDS011;24605;50.092;9.182;2023-12-20T09:28:56;9.52;;;2.38;;
38851;SDS011;24605;50.092;9.182;2023-12-20T09:31:24;12.68;;;2.72;;
38851;SDS011;24605;50.092;9.182;2023-12-20T09:33:50;9.90;;;2.90;;
38851;SDS011;24605;50.092;9.182;2023-12-20T09:36:17;8.90;;;3.10;;
38851;SDS011;24605;50.092;9.182;2023-12-20T09:38:43;10.80;;;2.53;;
38851;SDS011;24605;50.092;9.182;2023-12-20T09:41:10;12.63;;;2.88;;
38851;SDS011;24605;50.092;9.182;2023-12-20T09:43:37;8.63;;;2.35;;
38851;SDS011;24605;50.092;9.182;2023-12-20T09:46:05;10.77;;;2.67;;
38851;SDS011;24605;50.092;9.182;2023-12-20T09:48:34;9.30;;;2.58;;
38851;SDS011;24605;50.092;9.182;2023-12-20T09:51:02;8.10;;;2.28;;
38851;SDS011;24605;50.092;9.182;2023-12-20T09:53:29;10.52;;;2.70;;
38851;SDS011;24605;50.092;9.182;2023-12-20T09:55:59;10.82;;;2.78;;
38851;SDS011;24605;50.092;9.182;2023-12-20T09:58:26;11.52;;;2.60;;
38851;SDS011;24605;50.092;9.182;2023-12-20T10:00:52;8.15;;;2.53;;
38851;SDS011;24605;50.092;9.182;2023-12-20T10:03:21;15.32;;;2.80;;
38851;SDS011;24605;50.092;9.182;2023-12-20T10:05:53;11.55;;;2.90;;
38851;SDS011;24605;50.092;9.182;2023-12-20T10:08:22;12.82;;;3.20;;
38851;SDS011;24605;50.092;9.182;2023-12-20T10:10:50;10.90;;;2.42;;
38851;SDS011;24605;50.092;9.182;2023-12-20T10:13:16;13.82;;;2.92;;
38851;SDS011;24605;50.092;9.182;2023-12-20T10:15:43;12.27;;;2.78;;
38851;SDS011;24605;50.092;9.182;2023-12-20T10:18:09;7.75;;;2.70;;
38851;SDS011;24605;50.092;9.182;2023-12-20T10:20:38;10.93;;;3.10;;
38851;SDS011;24605;50.092;9.182;2023-12-20T10:23:08;10.15;;;2.50;;
38851;SDS011;24605;50.092;9.182;2023-12-20T10:25:34;12.00;;;2.60;;
38851;SDS011;24605;50.092;9.182;2023-12-20T10:28:11;16.77;;;4.97;;
38851;SDS011;24605;50.092;9.182;2023-12-20T10:30:39;11.43;;;2.47;;
38851;SDS011;24605;50.092;9.182;2023-12-20T10:33:06;11.13;;;3.00;;
38851;SDS011;24605;50.092;9.182;2023-12-20T10:35:33;6.90;;;2.60;;
38851;SDS011;24605;50.092;9.182;2023-12-20T10:38:03;9.82;;;2.75;;
38851;SDS011;24605;50.092;9.182;2023-12-20T10:40:32;6.95;;;2.13;;
38851;SDS011;24605;50.092;9.182;2023-12-20T10:43:01;12.15;;;2.38;;
38851;SDS011;24605;50.092;9.182;2023-12-20T10:45:28;12.90;;;2.60;;
38851;SDS011;24605;50.092;9.182;2023-12-20T10:47:55;10.05;;;2.58;;
38851;SDS011;24605;50.092;9.182;2023-12-20T10:50:24;10.45;;;2.33;;
38851;SDS011;24605;50.092;9.182;2023-12-20T10:52:52;12.50;;;2.72;;
38851;SDS011;24605;50.092;9.182;2023-12-20T10:55:20;10.52;;;2.58;;
38851;SDS011;24605;50.092;9.182;2023-12-20T10:57:48;8.35;;;2.53;;
38851;SDS011;24605;50.092;9.182;2023-12-20T11:00:16;7.35;;;2.50;;
38851;SDS011;24605;50.092;9.182;2023-12-20T11:02:44;13.48;;;3.03;;
38851;SDS011;24605;50.092;9.182;2023-12-20T11:05:14;11.13;;;2.92;;
38851;SDS011;24605;50.092;9.182;2023-12-20T11:07:52;7.93;;;2.70;;
38851;SDS011;24605;50.092;9.182;2023-12-20T11:10:25;14.43;;;3.63;;
38851;SDS011;24605;50.092;9.182;2023-12-20T11:12:58;11.63;;;3.50;;
38851;SDS011;24605;50.092;9.182;2023-12-20T11:15:34;12.55;;;2.90;;
38851;SDS011;24605;50.092;9.182;2023-12-20T11:18:01;7.50;;;2.60;;
38851;SDS011;24605;50.092;9.182;2023-12-20T11:20:35;9.32;;;2.60;;
38851;SDS011;24605;50.092;9.182;2023-12-20T11:23:02;10.68;;;2.63;;
38851;SDS011;24605;50.092;9.182;2023-12-20T11:25:29;10.20;;;2.80;;
38851;SDS011;24605;50.092;9.182;2023-12-20T11:28:10;6.75;;;2.72;;
38851;SDS011;24605;50.092;9.182;2023-12-20T11:30:45;12.75;;;2.67;;
38851;SDS011;24605;50.092;9.182;2023-12-20T11:33:13;12.30;;;2.95;;
38851;SDS011;24605;50.092;9.182;2023-12-20T11:35:40;9.82;;;3.15;;
38851;SDS011;24605;50.092;9.182;2023-12-20T11:38:07;9.73;;;2.65;;
38851;SDS011;24605;50.092;9.182;2023-12-20T11:40:34;10.65;;;2.85;;
38851;SDS011;24605;50.092;9.182;2023-12-20T11:43:02;7.57;;;2.35;;
38851;SDS011;24605;50.092;9.182;2023-12-20T11:45:30;12.60;;;3.40;;
38851;SDS011;24605;50.092;9.182;2023-12-20T11:47:57;13.32;;;3.55;;
38851;SDS011;24605;50.092;9.182;2023-12-20T11:50:24;7.72;;;2.80;;
38851;SDS011;24605;50.092;9.182;2023-12-20T11:52:51;13.73;;;3.88;;
38851;SDS011;24605;50.092;9.182;2023-12-20T11:55:18;10.63;;;4.15;;
38851;SDS011;24605;50.092;9.182;2023-12-20T11:57:45;13.52;;;4.90;;
38851;SDS011;24605;50.092;9.182;2023-12-20T12:00:12;13.60;;;3.70;;
38851;SDS011;24605;50.092;9.182;2023-12-20T12:02:41;12.02;;;3.42;;
38851;SDS011;24605;50.092;9.182;2023-12-20T12:05:07;11.10;;;2.80;;
38851;SDS011;24605;50.092;9.182;2023-12-20T12:07:34;10.13;;;2.67;;
38851;SDS011;24605;50.092;9.182;2023-12-20T12:10:01;13.20;;;2.80;;
38851;SDS011;24605;50.092;9.182;2023-12-20T12:12:29;9.35;;;3.00;;
38851;SDS011;24605;50.092;9.182;2023-12-20T12:14:56;11.00;;;2.70;;
38851;SDS011;24605;50.092;9.182;2023-12-20T12:17:22;15.52;;;2.80;;
38851;SDS011;24605;50.092;9.182;2023-12-20T12:19:51;8.65;;;2.20;;
38851;SDS011;24605;50.092;9.182;2023-12-20T12:22:29;8.90;;;2.38;;
38851;SDS011;24605;50.092;9.182;2023-12-20T12:24:58;8.30;;;2.40;;
38851;SDS011;24605;50.092;9.182;2023-12-20T12:27:25;11.80;;;2.55;;
38851;SDS011;24605;50.092;9.182;2023-12-20T12:30:01;10.43;;;2.40;;
38851;SDS011;24605;50.092;9.182;2023-12-20T12:32:28;13.68;;;2.75;;
38851;SDS011;24605;50.092;9.182;2023-12-20T12:34:56;11.02;;;2.28;;
38851;SDS011;24605;50.092;9.182;2023-12-20T12:37:23;9.75;;;2.45;;
38851;SDS011;24605;50.092;9.182;2023-12-20T12:39:50;10.43;;;2.63;;
38851;SDS011;24605;50.092;9.182;2023-12-20T12:42:16;8.90;;;2.20;;
38851;SDS011;24605;50.092;9.182;2023-12-20T12:44:42;10.70;;;2.80;;
38851;SDS011;24605;50.092;9.182;2023-12-20T12:47:09;11.68;;;2.38;;
38851;SDS011;24605;50.092;9.182;2023-12-20T12:49:35;13.57;;;2.70;;
38851;SDS011;24605;50.092;9.182;2023-12-20T12:52:03;10.02;;;2.65;;
38851;SDS011;24605;50.092;9.182;2023-12-20T12:54:30;14.48;;;3.42;;
38851;SDS011;24605;50.092;9.182;2023-12-20T12:56:57;8.13;;;2.25;;
38851;SDS011;24605;50.092;9.182;2023-12-20T12:59:23;7.18;;;1.88;;
38851;SDS011;24605;50.092;9.182;2023-12-20T13:01:52;13.57;;;2.72;;
38851;SDS011;24605;50.092;9.182;2023-12-20T13:04:18;9.32;;;2.72;;
38851;SDS011;24605;50.092;9.182;2023-12-20T13:06:45;10.02;;;2.65;;
38851;SDS011;24605;50.092;9.182;2023-12-20T13:09:13;7.18;;;1.88;;
38851;SDS011;24605;50.092;9.182;2023-12-20T13:11:40;8.95;;;2.35;;
38851;SDS011;24605;50.092;9.182;2023-12-20T13:14:07;7.85;;;2.22;;
38851;SDS011;24605;50.092;9.182;2023-12-20T13:16:35;9.65;;;2.15;;
38851;SDS011;24605;50.092;9.182;2023-12-20T13:19:02;8.85;;;2.22;;
38851;SDS011;24605;50.092;9.182;2023-12-20T13:21:28;11.32;;;2.38;;
38851;SDS011;24605;50.092;9.182;2023-12-20T13:23:55;6.65;;;2.20;;
38851;SDS011;24605;50.092;9.182;2023-12-20T13:26:23;8.65;;;2.65;;
38851;SDS011;24605;50.092;9.182;2023-12-20T13:28:50;6.35;;;2.03;;
38851;SDS011;24605;50.092;9.182;2023-12-20T13:31:16;6.38;;;1.83;;
38851;SDS011;24605;50.092;9.182;2023-12-20T13:33:43;8.02;;;2.00;;
38851;SDS011;24605;50.092;9.182;2023-12-20T13:36:09;9.25;;;2.72;;
38851;SDS011;24605;50.092;9.182;2023-12-20T13:38:36;7.13;;;2.15;;
38851;SDS011;24605;50.092;9.182;2023-12-20T13:41:02;6.13;;;1.90;;
38851;SDS011;24605;50.092;9.182;2023-12-20T13:43:31;11.20;;;2.20;;
38851;SDS011;24605;50.092;9.182;2023-12-20T13:45:57;10.75;;;2.58;;
38851;SDS011;24605;50.092;9.182;2023-12-20T13:48:24;10.48;;;2.58;;
38851;SDS011;24605;50.092;9.182;2023-12-20T13:50:51;11.63;;;2.63;;
38851;SDS011;24605;50.092;9.182;2023-12-20T13:53:17;7.80;;;2.90;;
38851;SDS011;24605;50.092;9.182;2023-12-20T13:55:44;8.80;;;2.50;;
38851;SDS011;24605;50.092;9.182;2023-12-20T13:58:10;10.27;;;2.55;;
38851;SDS011;24605;50.092;9.182;2023-12-20T14:00:39;10.93;;;2.75;;
38851;SDS011;24605;50.092;9.182;2023-12-20T14:03:06;6.90;;;2.35;;
38851;SDS011;24605;50.092;9.182;2023-12-20T14:05:35;10.15;;;2.70;;
38851;SDS011;24605;50.092;9.182;2023-12-20T14:08:02;8.95;;;2.60;;
38851;SDS011;24605;50.092;9.182;2023-12-20T14:10:29;7.43;;;2.58;;
38851;SDS011;24605;50.092;9.182;2023-12-20T14:12:55;11.05;;;2.97;;
38851;SDS011;24605;50.092;9.182;2023-12-20T14:15:22;7.40;;;2.47;;
38851;SDS011;24605;50.092;9.182;2023-12-20T14:17:51;9.57;;;2.65;;
38851;SDS011;24605;50.092;9.182;2023-12-20T14:20:18;8.23;;;2.80;;
38851;SDS011;24605;50.092;9.182;2023-12-20T14:22:45;7.38;;;2.70;;
38851;SDS011;24605;50.092;9.182;2023-12-20T14:25:11;13.75;;;2.97;;
38851;SDS011;24605;50.092;9.182;2023-12-20T14:27:39;10.63;;;3.60;;
38851;SDS011;24605;50.092;9.182;2023-12-20T14:30:06;10.45;;;2.95;;
38851;SDS011;24605;50.092;9.182;2023-12-20T14:32:34;9.65;;;3.00;;
38851;SDS011;24605;50.092;9.182;2023-12-20T14:35:04;8.95;;;3.22;;
38851;SDS011;24605;50.092;9.182;2023-12-20T14:37:31;10.63;;;3.22;;